createdAt,value
2017-10-02T00:00:56.497Z,17.40
2017-10-02T00:03:24.466Z,17.33
2017-10-02T00:05:52.475Z,15.50
2017-10-02T00:08:20.667Z,15.37
2017-10-02T00:10:48.727Z,15.63
2017-10-02T00:13:16.498Z,19.53
2017-10-02T00:15:44.096Z,17.43
2017-10-02T00:18:11.995Z,17.17
2017-10-02T00:20:43.319Z,18.37
2017-10-02T00:23:11.184Z,18.70
2017-10-02T00:25:39.977Z,17.43
2017-10-02T00:28:07.744Z,18.93
2017-10-02T00:30:36.065Z,24.57
2017-10-02T00:33:04.257Z,18.53
2017-10-02T00:35:31.827Z,20.33
2017-10-02T00:38:02.382Z,16.40
2017-10-02T00:40:30.143Z,21.87
2017-10-02T00:42:57.667Z,19.67
2017-10-02T00:45:25.826Z,21.50
2017-10-02T00:47:54.301Z,19.77
2017-10-02T00:50:22.712Z,23.00
2017-10-02T00:52:50.407Z,18.27
2017-10-02T00:55:17.915Z,19.50
2017-10-02T00:57:46.198Z,17.63
2017-10-02T01:00:14.059Z,16.40
2017-10-02T01:02:42.351Z,19.60
2017-10-02T01:05:10.111Z,17.63
2017-10-02T01:07:38.054Z,19.87
2017-10-02T01:10:05.773Z,19.03
2017-10-02T01:12:33.371Z,16.43
2017-10-02T01:15:01.294Z,19.03
2017-10-02T01:17:28.834Z,18.73
2017-10-02T01:19:57.195Z,16.67
2017-10-02T01:22:25.557Z,18.17
2017-10-02T01:24:53.128Z,17.30
2017-10-02T01:27:20.651Z,17.73
2017-10-02T01:29:48.188Z,19.37
2017-10-02T01:32:15.800Z,20.03
2017-10-02T01:34:43.347Z,21.13
2017-10-02T01:37:11.427Z,17.53
2017-10-02T01:39:39.057Z,15.67
2017-10-02T01:42:06.588Z,18.23
2017-10-02T01:44:34.439Z,22.10
2017-10-02T01:47:02.707Z,29.73
2017-10-02T01:49:31.023Z,21.30
2017-10-02T01:51:58.722Z,20.87
2017-10-02T01:54:26.279Z,17.87
2017-10-02T01:56:53.890Z,24.40
2017-10-02T01:59:21.858Z,19.53
2017-10-02T02:01:50.042Z,19.13
2017-10-02T02:04:17.800Z,19.73
2017-10-02T02:06:45.927Z,15.37
2017-10-02T02:09:13.829Z,21.43
2017-10-02T02:11:41.783Z,16.97
2017-10-02T02:14:10.104Z,19.43
2017-10-02T02:16:37.760Z,22.47
2017-10-02T02:19:05.610Z,20.37
2017-10-02T02:21:33.583Z,18.13
2017-10-02T02:24:01.116Z,16.23
2017-10-02T02:26:28.815Z,18.70
2017-10-02T02:28:56.718Z,17.60
2017-10-02T02:31:24.223Z,16.70
2017-10-02T02:33:51.751Z,17.53
2017-10-02T02:36:19.683Z,23.80
2017-10-02T02:38:47.327Z,16.77
2017-10-02T02:41:14.839Z,24.83
2017-10-02T02:43:42.801Z,23.17
2017-10-02T02:46:10.338Z,22.50
2017-10-02T02:48:37.961Z,23.17
2017-10-02T02:51:06.642Z,28.17
2017-10-02T02:53:35.839Z,28.30
2017-10-02T02:56:03.375Z,29.83
2017-10-02T02:58:31.072Z,34.83
2017-10-02T03:00:59.334Z,48.47
2017-10-02T03:03:27.602Z,31.40
2017-10-02T03:05:55.380Z,37.23
2017-10-02T03:08:22.896Z,35.17
2017-10-02T03:10:50.504Z,35.73
2017-10-02T03:13:20.311Z,54.53
2017-10-02T03:15:48.707Z,41.53
2017-10-02T03:18:16.275Z,42.23
2017-10-02T03:20:43.836Z,39.23
2017-10-02T03:23:11.354Z,35.30
2017-10-02T03:25:38.870Z,37.27
2017-10-02T03:28:06.707Z,30.83
2017-10-02T03:30:34.222Z,27.43
2017-10-02T03:33:01.734Z,37.27
2017-10-02T03:35:29.735Z,37.43
2017-10-02T03:37:57.450Z,33.60
2017-10-02T03:40:24.955Z,39.93
2017-10-02T03:42:52.519Z,34.67
2017-10-02T03:45:20.087Z,36.90
2017-10-02T03:47:47.607Z,34.43
2017-10-02T03:50:15.687Z,23.50
2017-10-02T03:52:43.239Z,31.03
2017-10-02T03:55:10.919Z,29.70
2017-10-02T03:57:38.816Z,39.07
2017-10-02T04:00:06.338Z,35.83
2017-10-02T04:02:33.979Z,36.40
2017-10-02T04:05:01.947Z,36.00
2017-10-02T04:07:29.818Z,39.90
2017-10-02T04:09:57.483Z,39.27
2017-10-02T04:12:25.163Z,30.23
2017-10-02T04:14:53.180Z,25.53
2017-10-02T04:17:20.787Z,28.77
2017-10-02T04:19:48.663Z,41.30
2017-10-02T04:22:16.245Z,30.37
2017-10-02T04:24:43.786Z,31.10
2017-10-02T04:27:11.419Z,29.43
2017-10-02T04:29:39.028Z,29.13
2017-10-02T04:32:06.547Z,32.53
2017-10-02T04:34:41.582Z,22.07
2017-10-02T04:37:09.181Z,29.80
2017-10-02T04:39:36.715Z,25.97
2017-10-02T04:42:04.628Z,25.90
2017-10-02T04:44:32.223Z,20.43
2017-10-02T04:46:59.767Z,21.23
2017-10-02T04:49:27.575Z,22.23
2017-10-02T04:51:55.084Z,24.90
2017-10-02T04:54:22.600Z,21.87
2017-10-02T04:56:57.884Z,21.23
2017-10-02T04:59:26.183Z,22.00
2017-10-02T05:01:53.702Z,33.17
2017-10-02T05:04:21.645Z,20.10
2017-10-02T05:06:49.186Z,19.40
2017-10-02T05:09:16.735Z,19.80
2017-10-02T05:11:44.678Z,20.33
2017-10-02T05:14:12.967Z,26.40
2017-10-02T05:16:41.258Z,16.87
2017-10-02T05:19:09.080Z,22.43
2017-10-02T05:21:36.622Z,18.67
2017-10-02T05:24:04.134Z,18.80
2017-10-02T05:26:31.990Z,16.07
2017-10-02T05:28:59.839Z,17.07
2017-10-02T05:31:27.420Z,16.93
2017-10-02T05:33:56.194Z,18.40
2017-10-02T05:36:24.012Z,15.20
2017-10-02T05:38:51.535Z,19.70
2017-10-02T05:41:19.044Z,13.37
2017-10-02T05:43:47.060Z,16.47
2017-10-02T05:46:14.648Z,15.70
2017-10-02T05:48:42.155Z,14.90
2017-10-02T05:51:09.707Z,13.13
2017-10-02T05:53:37.235Z,14.43
2017-10-02T05:56:04.831Z,13.47
2017-10-02T05:58:32.367Z,13.20
2017-10-02T06:00:59.875Z,14.03
2017-10-02T06:03:27.411Z,14.87
2017-10-02T06:05:55.233Z,14.00
2017-10-02T06:08:22.744Z,13.13
2017-10-02T06:10:50.395Z,13.10
2017-10-02T06:13:17.978Z,17.00
2017-10-02T06:15:45.507Z,11.93
2017-10-02T06:18:13.040Z,12.97
2017-10-02T06:20:40.722Z,10.20
2017-10-02T06:23:08.234Z,11.10
2017-10-02T06:25:35.987Z,11.80
2017-10-02T06:28:04.309Z,11.13
2017-10-02T06:30:31.822Z,12.97
2017-10-02T06:32:59.400Z,16.03
2017-10-02T06:35:26.980Z,7.93
2017-10-02T06:37:54.523Z,9.73
2017-10-02T06:40:22.446Z,7.27
2017-10-02T06:42:50.263Z,15.07
2017-10-02T06:45:17.820Z,11.37
2017-10-02T06:47:45.650Z,10.73
2017-10-02T06:50:13.187Z,9.30
2017-10-02T06:52:41.093Z,10.40
2017-10-02T06:55:08.920Z,11.23
2017-10-02T06:57:36.427Z,8.57
2017-10-02T07:00:04.699Z,7.80
2017-10-02T07:02:33.279Z,9.83
2017-10-02T07:05:00.798Z,8.27
2017-10-02T07:07:28.342Z,9.00
2017-10-02T07:09:56.546Z,20.00
2017-10-02T07:12:24.115Z,11.53
2017-10-02T07:14:51.772Z,20.00
2017-10-02T07:17:19.480Z,8.73
2017-10-02T07:19:47.159Z,10.67
2017-10-02T07:22:14.851Z,9.33
2017-10-02T07:24:42.858Z,11.97
2017-10-02T07:27:10.390Z,9.37
2017-10-02T07:29:38.094Z,7.87
2017-10-02T07:32:06.077Z,6.60
2017-10-02T07:34:33.836Z,9.80
2017-10-02T07:37:01.464Z,12.63
2017-10-02T07:39:31.320Z,13.60
2017-10-02T07:41:58.917Z,8.43
2017-10-02T07:44:26.437Z,8.80
2017-10-02T07:46:54.461Z,18.03
2017-10-02T07:49:22.147Z,10.20
2017-10-02T07:51:49.859Z,7.10
2017-10-02T07:54:17.996Z,7.73
2017-10-02T07:56:45.512Z,12.27
2017-10-02T07:59:13.436Z,8.43
2017-10-02T08:01:41.100Z,7.10
2017-10-02T08:04:09.513Z,11.20
2017-10-02T08:06:37.316Z,7.63
2017-10-02T08:09:05.783Z,10.13
2017-10-02T08:11:34.295Z,13.10
2017-10-02T08:14:01.903Z,7.27
2017-10-02T08:16:29.650Z,7.80
2017-10-02T08:18:57.291Z,8.50
2017-10-02T08:21:24.972Z,10.60
2017-10-02T08:23:52.996Z,11.53
2017-10-02T08:26:21.388Z,11.63
2017-10-02T08:28:49.115Z,6.87
2017-10-02T08:31:16.832Z,8.60
2017-10-02T08:33:44.752Z,7.93
2017-10-02T08:36:12.296Z,6.83
2017-10-02T08:38:40.112Z,10.03
2017-10-02T08:41:07.652Z,8.53
2017-10-02T08:43:36.008Z,8.50
2017-10-02T08:46:04.029Z,12.13
2017-10-02T08:48:31.568Z,7.10
2017-10-02T08:50:59.182Z,6.20
2017-10-02T08:53:27.039Z,7.10
2017-10-02T08:55:54.639Z,7.27
2017-10-02T08:58:22.324Z,6.43
2017-10-02T09:00:49.973Z,5.57
2017-10-02T09:03:18.372Z,8.03
2017-10-02T09:05:45.991Z,8.93
2017-10-02T09:08:14.121Z,7.00
2017-10-02T09:10:41.765Z,6.53
2017-10-02T09:13:09.409Z,5.40
2017-10-02T09:15:37.187Z,5.30
2017-10-02T09:18:05.558Z,4.77
2017-10-02T09:20:33.111Z,7.23
2017-10-02T09:23:01.619Z,5.07
2017-10-02T09:25:29.244Z,4.33
2017-10-02T09:27:56.776Z,6.27
2017-10-02T09:30:24.560Z,5.70
2017-10-02T09:32:52.177Z,6.80
2017-10-02T09:35:19.800Z,5.73
2017-10-02T09:37:47.527Z,9.53
2017-10-02T09:40:15.219Z,5.10
2017-10-02T09:42:42.976Z,7.37
2017-10-02T09:45:10.790Z,7.33
2017-10-02T09:47:38.428Z,7.73
2017-10-02T09:50:06.792Z,4.50
2017-10-02T09:52:34.688Z,5.70
2017-10-02T09:55:02.320Z,9.80
2017-10-02T09:57:29.865Z,4.27
2017-10-02T09:59:57.860Z,7.30
2017-10-02T10:02:26.404Z,5.33
2017-10-02T10:04:54.145Z,6.07
2017-10-02T10:07:22.870Z,5.17
2017-10-02T10:09:50.640Z,5.67
2017-10-02T10:12:18.280Z,5.27
2017-10-02T10:14:46.086Z,5.43
2017-10-02T10:17:13.662Z,6.17
2017-10-02T10:19:41.335Z,5.13
2017-10-02T10:22:09.015Z,3.50
2017-10-02T10:24:36.723Z,3.83
2017-10-02T10:27:04.422Z,10.63
2017-10-02T10:29:32.327Z,3.80
2017-10-02T10:31:59.927Z,3.60
2017-10-02T10:34:27.703Z,3.50
2017-10-02T10:36:56.221Z,5.63
2017-10-02T10:39:23.827Z,5.33
2017-10-02T10:41:51.395Z,4.40
2017-10-02T10:44:31.917Z,5.33
2017-10-02T10:46:59.601Z,4.80
2017-10-02T10:49:27.208Z,3.70
2017-10-02T10:51:54.900Z,8.50
2017-10-02T10:54:22.540Z,6.30
2017-10-02T10:56:50.160Z,4.00
2017-10-02T10:59:18.967Z,3.47
2017-10-02T11:01:46.673Z,3.47
2017-10-02T11:04:14.312Z,4.57
2017-10-02T11:06:42.355Z,4.47
2017-10-02T11:09:09.924Z,6.60
2017-10-02T11:11:38.461Z,3.60
2017-10-02T11:14:06.216Z,4.13
2017-10-02T11:16:33.821Z,3.80
2017-10-02T11:19:01.455Z,8.57
2017-10-02T11:21:29.187Z,4.33
2017-10-02T11:23:57.583Z,4.17
2017-10-02T11:26:25.197Z,4.67
2017-10-02T11:28:53.996Z,4.33
2017-10-02T11:31:21.548Z,5.40
2017-10-02T11:33:49.990Z,3.77
2017-10-02T11:36:17.844Z,3.70
2017-10-02T11:38:45.500Z,6.00
2017-10-02T11:41:13.187Z,6.70
2017-10-02T11:43:40.952Z,4.37
2017-10-02T11:46:08.963Z,4.53
2017-10-02T11:48:36.707Z,4.97
2017-10-02T11:51:04.463Z,6.30
2017-10-02T11:53:32.099Z,5.67
2017-10-02T11:55:59.712Z,5.40
2017-10-02T11:58:27.335Z,5.47
2017-10-02T12:00:55.023Z,5.40
2017-10-02T12:03:22.611Z,4.70
2017-10-02T12:05:50.795Z,5.00
2017-10-02T12:08:18.553Z,8.60
2017-10-02T12:10:46.148Z,4.77
2017-10-02T12:13:14.016Z,4.33
2017-10-02T12:15:41.756Z,5.67
2017-10-02T12:18:09.315Z,3.77
2017-10-02T12:20:37.000Z,4.40
2017-10-02T12:23:04.609Z,5.03
2017-10-02T12:25:32.304Z,6.10
2017-10-02T12:28:00.281Z,8.10
2017-10-02T12:30:27.856Z,4.40
2017-10-02T12:32:55.562Z,6.53
2017-10-02T12:35:24.000Z,3.50
2017-10-02T12:37:51.574Z,7.57
2017-10-02T12:40:19.199Z,6.80
2017-10-02T12:42:47.094Z,4.00
2017-10-02T12:45:14.613Z,4.30
2017-10-02T12:47:42.192Z,5.50
2017-10-02T12:50:10.226Z,7.23
2017-10-02T12:52:37.831Z,6.23
2017-10-02T12:55:05.536Z,3.50
2017-10-02T12:57:34.058Z,5.67
2017-10-02T13:00:01.802Z,5.17
2017-10-02T13:02:29.434Z,6.40
2017-10-02T13:04:57.392Z,4.13
2017-10-02T13:07:25.352Z,3.60
2017-10-02T13:09:52.995Z,3.00
2017-10-02T13:12:21.015Z,3.87
2017-10-02T13:14:49.404Z,7.63
2017-10-02T13:17:16.996Z,4.70
2017-10-02T13:19:44.817Z,3.27
2017-10-02T13:22:13.208Z,5.40
2017-10-02T13:24:40.873Z,6.87
2017-10-02T13:27:08.543Z,3.67
2017-10-02T13:29:36.236Z,4.73
2017-10-02T13:32:03.864Z,4.93
2017-10-02T13:34:31.524Z,3.47
2017-10-02T13:36:59.165Z,5.67
2017-10-02T13:39:27.624Z,3.50
2017-10-02T13:41:55.735Z,3.90
2017-10-02T13:44:23.333Z,4.60
2017-10-02T13:46:50.940Z,3.37
2017-10-02T13:49:19.863Z,5.13
2017-10-02T13:51:47.620Z,6.63
2017-10-02T13:54:15.383Z,7.30
2017-10-02T13:56:43.044Z,4.13
2017-10-02T13:59:11.183Z,11.17
2017-10-02T14:01:39.420Z,2.80
2017-10-02T14:04:07.446Z,7.53
2017-10-02T14:06:35.956Z,9.03
2017-10-02T14:09:03.717Z,3.63
2017-10-02T14:11:31.368Z,6.33
2017-10-02T14:13:58.960Z,3.40
2017-10-02T14:16:26.639Z,3.50
2017-10-02T14:18:54.253Z,4.90
2017-10-02T14:21:21.943Z,4.40
2017-10-02T14:23:50.080Z,4.73
2017-10-02T14:26:17.691Z,4.03
2017-10-02T14:28:45.312Z,3.20
2017-10-02T14:31:14.567Z,4.70
2017-10-02T14:33:42.167Z,4.53
2017-10-02T14:36:09.746Z,6.27
2017-10-02T14:38:37.540Z,5.93
2017-10-02T14:41:05.251Z,4.70
2017-10-02T14:43:33.587Z,5.90
2017-10-02T14:46:01.297Z,6.67
2017-10-02T14:48:28.973Z,5.20
2017-10-02T14:50:56.830Z,4.70
2017-10-02T14:53:24.769Z,3.67
2017-10-02T14:55:52.332Z,5.53
2017-10-02T14:58:20.004Z,3.90
2017-10-02T15:00:48.020Z,3.57
2017-10-02T15:03:15.657Z,7.33
2017-10-02T15:05:44.232Z,3.80
2017-10-02T15:08:12.181Z,2.80
2017-10-02T15:10:39.808Z,4.37
2017-10-02T15:13:07.415Z,3.03
2017-10-02T15:15:35.223Z,3.87
2017-10-02T15:18:02.812Z,4.87
2017-10-02T15:20:30.460Z,3.57
2017-10-02T15:22:58.251Z,3.77
2017-10-02T15:25:25.873Z,5.77
2017-10-02T15:27:53.591Z,3.00
2017-10-02T15:30:21.836Z,3.73
2017-10-02T15:32:49.442Z,3.13
2017-10-02T15:35:17.019Z,4.70
2017-10-02T15:37:45.933Z,3.30
2017-10-02T15:40:13.555Z,3.50
2017-10-02T15:42:41.228Z,5.73
2017-10-02T15:45:08.943Z,6.37
2017-10-02T15:47:36.556Z,4.40
2017-10-02T15:50:04.559Z,28.73
2017-10-02T15:52:32.251Z,3.93
2017-10-02T15:54:59.864Z,6.60
2017-10-02T15:57:27.721Z,6.23
2017-10-02T15:59:55.324Z,5.93
2017-10-02T16:02:22.940Z,5.13
2017-10-02T16:04:51.148Z,5.33
2017-10-02T16:07:18.712Z,5.20
2017-10-02T16:09:46.264Z,5.73
2017-10-02T16:12:13.895Z,5.60
2017-10-02T16:14:41.440Z,4.77
2017-10-02T16:17:09.008Z,4.33
2017-10-02T16:19:36.698Z,4.87
2017-10-02T16:22:04.231Z,4.67
2017-10-02T16:24:31.751Z,3.27
2017-10-02T16:26:59.667Z,6.90
2017-10-02T16:29:27.316Z,4.43
2017-10-02T16:31:54.835Z,3.37
2017-10-02T16:34:22.746Z,2.70
2017-10-02T16:36:50.340Z,4.40
2017-10-02T16:39:17.932Z,3.13
2017-10-02T16:41:45.584Z,6.13
2017-10-02T16:44:13.100Z,2.50
2017-10-02T16:46:40.616Z,3.37
2017-10-02T16:49:08.340Z,2.60
2017-10-02T16:51:36.514Z,7.03
2017-10-02T16:54:04.046Z,3.60
2017-10-02T16:56:31.622Z,3.60
2017-10-02T16:58:59.160Z,3.23
2017-10-02T17:01:26.914Z,4.37
2017-10-02T17:03:55.216Z,3.57
2017-10-02T17:06:22.737Z,3.73
2017-10-02T17:08:50.726Z,5.33
2017-10-02T17:11:19.017Z,7.17
2017-10-02T17:13:46.530Z,6.03
2017-10-02T17:16:14.419Z,3.50
2017-10-02T17:18:42.195Z,4.23
2017-10-02T17:21:10.059Z,9.00
2017-10-02T17:23:38.108Z,6.27
2017-10-02T17:26:06.229Z,6.83
2017-10-02T17:28:35.452Z,9.77
2017-10-02T17:31:03.449Z,14.37
2017-10-02T17:33:31.510Z,15.07
2017-10-02T17:35:59.580Z,18.37
2017-10-02T17:38:27.611Z,11.23
2017-10-02T17:40:55.125Z,7.07
2017-10-02T17:43:22.672Z,9.03
2017-10-02T17:45:56.328Z,5.83
2017-10-02T17:48:23.855Z,5.23
2017-10-02T17:50:51.815Z,4.40
2017-10-02T17:53:19.667Z,5.67
2017-10-02T17:55:47.185Z,3.63
2017-10-02T17:58:15.345Z,3.67
2017-10-02T18:00:44.274Z,5.83
2017-10-02T18:03:11.857Z,4.90
2017-10-02T18:05:39.695Z,4.07
2017-10-02T18:08:07.359Z,5.37
2017-10-02T18:10:34.882Z,3.30
2017-10-02T18:13:02.451Z,3.27
2017-10-02T18:15:30.547Z,4.37
2017-10-02T18:17:58.083Z,4.40
2017-10-02T18:20:25.917Z,6.20
2017-10-02T18:22:59.291Z,5.83
2017-10-02T18:25:27.720Z,4.53
2017-10-02T18:27:55.308Z,3.93
2017-10-02T18:30:23.337Z,3.10
2017-10-02T18:32:51.164Z,4.43
2017-10-02T18:35:18.803Z,3.83
2017-10-02T18:37:46.358Z,7.07
2017-10-02T18:40:14.119Z,3.47
2017-10-02T18:42:41.660Z,2.97
2017-10-02T18:45:09.175Z,4.10
2017-10-02T18:47:37.092Z,3.63
2017-10-02T18:50:04.615Z,4.80
2017-10-02T18:52:32.251Z,3.67
2017-10-02T18:55:00.980Z,3.07
2017-10-02T18:57:28.621Z,2.87
2017-10-02T18:59:56.445Z,3.50
2017-10-02T19:02:23.975Z,3.83
2017-10-02T19:04:53.270Z,3.70
2017-10-02T19:07:21.657Z,4.20
2017-10-02T19:09:50.595Z,4.23
2017-10-02T19:12:18.102Z,2.80
2017-10-02T19:14:45.946Z,3.23
2017-10-02T19:17:14.133Z,3.73
2017-10-02T19:19:41.642Z,5.83
2017-10-02T19:22:12.990Z,5.60
2017-10-02T19:24:40.699Z,3.93
2017-10-02T19:29:42.538Z,6.90
2017-10-02T19:32:10.067Z,4.77
2017-10-02T19:34:37.611Z,7.47
2017-10-02T19:37:06.287Z,4.33
2017-10-02T19:39:33.784Z,4.30
2017-10-02T19:42:01.279Z,5.00
2017-10-02T19:44:29.979Z,4.73
2017-10-02T19:46:58.479Z,3.70
2017-10-02T19:49:25.990Z,6.30
2017-10-02T19:51:54.365Z,3.20
2017-10-02T19:54:21.911Z,4.60
2017-10-02T19:56:50.422Z,4.43
2017-10-02T19:59:18.279Z,4.43
2017-10-02T20:01:45.836Z,5.93
2017-10-02T20:04:13.351Z,4.87
2017-10-02T20:06:41.302Z,4.63
2017-10-02T20:09:08.856Z,3.70
2017-10-02T20:11:36.407Z,6.40
2017-10-02T20:14:04.599Z,6.60
2017-10-02T20:16:32.195Z,4.10
2017-10-02T20:19:03.303Z,4.43
2017-10-02T20:21:30.811Z,3.50
2017-10-02T20:23:58.769Z,3.57
2017-10-02T20:26:26.623Z,3.60
2017-10-02T20:28:54.232Z,5.80
2017-10-02T20:31:21.731Z,3.73
2017-10-02T20:33:49.549Z,4.00
2017-10-02T20:36:17.075Z,4.63
2017-10-02T20:38:44.602Z,4.50
2017-10-02T20:41:12.310Z,3.63
2017-10-02T20:43:39.818Z,6.93
2017-10-02T20:46:07.351Z,2.60
2017-10-02T20:48:34.907Z,3.27
2017-10-02T20:51:02.423Z,3.13
2017-10-02T20:53:30.411Z,5.60
2017-10-02T20:55:58.023Z,2.60
2017-10-02T20:58:26.141Z,4.07
2017-10-02T21:00:54.062Z,3.70
2017-10-02T21:03:21.650Z,4.50
2017-10-02T21:05:50.196Z,3.43
2017-10-02T21:08:17.849Z,5.13
2017-10-02T21:10:45.370Z,3.43
2017-10-02T21:13:12.950Z,3.40
2017-10-02T21:15:40.606Z,3.10
2017-10-02T21:18:08.363Z,3.90
2017-10-02T21:20:35.876Z,5.00
2017-10-02T21:23:04.115Z,2.53
2017-10-02T21:25:31.659Z,2.90
2017-10-02T21:27:59.178Z,4.00
2017-10-02T21:30:27.136Z,4.23
2017-10-02T21:32:55.112Z,3.63
2017-10-02T21:35:22.679Z,4.17
2017-10-02T21:37:50.636Z,4.83
2017-10-02T21:40:18.186Z,3.90
2017-10-02T21:42:45.922Z,2.73
2017-10-02T21:45:13.779Z,4.10
2017-10-02T21:47:41.310Z,5.00
2017-10-02T21:50:09.024Z,3.93
2017-10-02T21:52:37.781Z,4.30
2017-10-02T21:55:05.303Z,4.23
2017-10-02T21:57:32.815Z,5.17
2017-10-02T22:00:00.407Z,5.10
2017-10-02T22:02:27.923Z,9.03
2017-10-02T22:04:56.800Z,10.07
2017-10-02T22:07:24.450Z,8.57
2017-10-02T22:09:52.023Z,5.43
2017-10-02T22:12:19.910Z,6.03
2017-10-02T22:14:47.599Z,6.77
2017-10-02T22:17:15.202Z,7.70
2017-10-02T22:19:44.119Z,5.33
2017-10-02T22:22:11.663Z,12.13
2017-10-02T22:24:39.263Z,6.20
2017-10-02T22:27:06.850Z,5.50
2017-10-02T22:29:34.356Z,4.87
2017-10-02T22:32:01.887Z,7.43
2017-10-02T22:34:30.060Z,5.03
2017-10-02T22:36:57.562Z,5.27
2017-10-02T22:39:25.563Z,5.73
2017-10-02T22:41:53.630Z,10.03
2017-10-02T22:44:21.297Z,8.00
2017-10-02T22:46:48.821Z,8.50
2017-10-02T22:49:17.442Z,8.40
2017-10-02T22:51:44.999Z,9.70
2017-10-02T22:54:12.670Z,9.47
2017-10-02T22:56:40.257Z,7.40
2017-10-02T22:59:08.543Z,8.60
2017-10-02T23:01:36.095Z,7.20
2017-10-02T23:04:03.718Z,9.93
2017-10-02T23:06:31.287Z,6.00
2017-10-02T23:08:58.796Z,8.30
2017-10-02T23:11:26.877Z,10.00
2017-10-02T23:13:54.978Z,3.97
2017-10-02T23:16:22.599Z,3.77
2017-10-02T23:18:50.515Z,3.37
2017-10-02T23:21:18.547Z,2.83
2017-10-02T23:23:46.087Z,3.17
2017-10-02T23:26:13.779Z,3.40
2017-10-02T23:28:41.296Z,5.63
2017-10-02T23:31:09.599Z,3.70
2017-10-02T23:33:37.273Z,4.37
2017-10-02T23:36:04.775Z,4.07
2017-10-02T23:38:32.368Z,3.60
2017-10-02T23:40:59.987Z,4.30
2017-10-02T23:43:27.597Z,4.43
2017-10-02T23:45:55.199Z,3.87
2017-10-02T23:48:23.111Z,4.17
2017-10-02T23:50:50.722Z,5.90
2017-10-02T23:53:18.266Z,4.10
2017-10-02T23:55:45.872Z,5.33
2017-10-02T23:58:13.412Z,5.00
